Time;durP1;ratioP1;P1;durP2;ratioP2;P2;SDS_P1;SDS_P2;PMS_P1;PMS_P2;Temp;Humidity;BMP_temperature;BMP_pressure;BME280_temperature;BME280_humidity;BME280_pressure;Samples;Min_cycle;Max_cycle;Signal;HPM_P1;HPM_P2
2022/01/19 00:00:17;;;;;;;41.80;25.55;;;;;;;-0.25;100.00;102153.25;4969415;28;20141;-62
2022/01/19 00:02:42;;;;;;;42.80;25.65;;;;;;;-0.35;100.00;102149.59;4969683;28;20964;-62
2022/01/19 00:05:11;;;;;;;42.03;26.45;;;;;;;-0.40;100.00;102158.91;4969384;28;20901;-62
2022/01/19 00:07:36;;;;;;;50.60;27.75;;;;;;;-0.47;100.00;102166.50;4969218;28;20044;-62
2022/01/19 00:10:05;;;;;;;44.72;28.50;;;;;;;-0.47;100.00;102161.34;4969655;28;21058;-62
2022/01/19 00:12:31;;;;;;;42.60;28.45;;;;;;;-0.52;100.00;102164.69;4969070;28;20876;-62
2022/01/19 00:14:57;;;;;;;49.65;26.30;;;;;;;-0.62;100.00;102161.84;4969876;28;20032;-62
2022/01/19 00:17:22;;;;;;;44.63;26.58;;;;;;;-0.69;100.00;102147.06;4970612;28;20916;-61
2022/01/19 00:19:47;;;;;;;36.83;23.73;;;;;;;-0.93;100.00;102113.81;4969478;28;20041;-62
2022/01/19 00:22:13;;;;;;;40.08;25.35;;;;;;;-0.90;100.00;102123.31;4969553;28;20847;-62
2022/01/19 00:24:38;;;;;;;43.47;24.42;;;;;;;-1.14;100.00;102095.22;4969488;28;20030;-61
2022/01/19 00:27:04;;;;;;;39.92;23.52;;;;;;;-0.98;100.00;102109.38;4968030;28;20092;-61
2022/01/19 00:29:29;;;;;;;46.42;23.80;;;;;;;-1.07;100.00;102082.53;4969786;28;20820;-61
2022/01/19 00:31:54;;;;;;;48.72;25.67;;;;;;;-1.19;100.00;102066.78;4970723;28;20035;-62
2022/01/19 00:34:20;;;;;;;50.05;28.65;;;;;;;-1.22;100.00;102069.28;4970953;28;20842;-62
2022/01/19 00:36:45;;;;;;;47.30;29.23;;;;;;;-1.10;100.00;102048.94;4968874;28;20053;-62
2022/01/19 00:39:11;;;;;;;51.60;29.92;;;;;;;-0.96;100.00;102051.84;4968744;28;20851;-61
2022/01/19 00:41:37;;;;;;;55.85;30.70;;;;;;;-0.86;100.00;102050.31;4968812;28;20022;-62
2022/01/19 00:44:02;;;;;;;53.08;30.75;;;;;;;-1.86;100.00;101880.44;4968893;28;20899;-62
2022/01/19 00:46:28;;;;;;;56.33;32.17;;;;;;;-0.88;100.00;102065.75;4968909;28;20034;-62
2022/01/19 00:48:53;;;;;;;60.08;32.55;;;;;;;-0.97;100.00;102064.69;4969338;28;20034;-62
2022/01/19 00:51:18;;;;;;;47.45;30.25;;;;;;;-1.00;100.00;102090.41;4968764;28;20026;-62
2022/01/19 00:53:44;;;;;;;59.03;32.67;;;;;;;-1.08;100.00;102088.50;4969889;28;20938;-62
2022/01/19 00:56:09;;;;;;;51.28;31.23;;;;;;;-1.16;100.00;102090.03;4968149;28;20036;-62
2022/01/19 00:58:34;;;;;;;48.17;30.88;;;;;;;-1.20;100.00;102102.81;4971099;28;20065;-62
2022/01/19 01:01:00;;;;;;;47.35;27.15;;;;;;;-1.27;100.00;102104.38;4969844;28;20061;-62
2022/01/19 01:03:25;;;;;;;41.85;28.00;;;;;;;-1.35;100.00;102105.03;4969598;28;20032;-62
2022/01/19 01:05:50;;;;;;;48.40;29.55;;;;;;;-1.41;100.00;102103.13;4969721;28;20042;-62
2022/01/19 01:08:16;;;;;;;56.10;32.03;;;;;;;-1.39;100.00;102098.91;4970176;28;20932;-62
2022/01/19 01:10:43;;;;;;;50.08;30.90;;;;;;;-1.48;100.00;102083.19;4968448;28;20033;-62
2022/01/19 01:13:24;;;;;;;54.22;30.70;;;;;;;-1.44;100.00;102072.13;4968392;28;20176;-62
2022/01/19 01:18:27;;;;;;;44.65;29.08;;;;;;;-1.49;100.00;102059.97;4969861;28;20045;-62
2022/01/19 01:20:55;;;;;;;46.00;29.40;;;;;;;-1.51;100.00;102067.66;4968069;28;20222;-62
2022/01/19 01:23:23;;;;;;;53.67;30.23;;;;;;;-1.57;100.00;102065.81;4968144;28;20033;-62
2022/01/19 01:25:49;;;;;;;54.50;30.05;;;;;;;-1.76;100.00;102018.94;4967954;28;20053;-62
2022/01/19 01:28:15;;;;;;;57.85;32.60;;;;;;;-1.55;100.00;102058.09;4969418;28;20037;-62
2022/01/19 01:30:41;;;;;;;49.47;29.17;;;;;;;-1.55;100.00;102045.22;4967749;28;20018;-62
2022/01/19 01:33:06;;;;;;;48.85;31.20;;;;;;;-1.72;100.00;102007.84;4967592;28;20091;-62
2022/01/19 01:35:32;;;;;;;52.72;29.70;;;;;;;-1.61;100.00;102021.88;4967650;28;20084;-62
2022/01/19 01:37:57;;;;;;;57.42;31.00;;;;;;;-1.77;100.00;101999.13;4967147;28;20025;-62
2022/01/19 01:40:25;;;;;;;55.13;33.22;;;;;;;-1.59;100.00;102015.91;4969597;28;20033;-62
2022/01/19 01:42:53;;;;;;;54.95;32.60;;;;;;;-1.83;100.00;101979.25;4968790;28;20030;-62
2022/01/19 01:45:24;;;;;;;48.28;31.42;;;;;;;-1.75;100.00;102002.59;4967942;28;20030;-62
2022/01/19 01:47:55;;;;;;;53.97;30.08;;;;;;;-1.77;100.00;102002.59;4967678;28;20080;-62
2022/01/19 01:53:26;;;;;;;53.72;32.40;;;;;;;-1.88;100.00;102001.44;4968833;28;20107;-62
2022/01/19 01:56:16;;;;;;;49.88;30.05;;;;;;;-1.77;100.00;102035.19;4968451;28;20091;-62
2022/01/19 01:58:44;;;;;;;59.20;31.33;;;;;;;-1.97;100.00;101978.03;4967305;28;20084;-62
2022/01/19 02:01:10;;;;;;;48.05;29.42;;;;;;;-1.85;100.00;101992.91;4968182;28;20037;-62
2022/01/19 02:03:38;;;;;;;50.97;31.10;;;;;;;-1.88;100.00;101991.13;4969725;28;20148;-61
2022/01/19 02:23:01;;;;;;;52.95;33.10;;;;;;;-1.97;100.00;101917.94;4967466;28;20068;-62
2022/01/19 02:25:30;;;;;;;53.22;33.78;;;;;;;-2.31;100.00;101844.13;4965721;28;20060;-62
2022/01/19 02:41:16;;;;;;;52.08;32.67;;;;;;;-1.76;100.00;101887.56;4967810;28;20037;-62
2022/01/19 02:43:46;;;;;;;48.55;32.53;;;;;;;-1.75;100.00;101863.50;4966465;28;20089;-62
2022/01/19 02:51:39;;;;;;;60.45;35.25;;;;;;;-1.31;100.00;101865.38;4967205;28;20049;-62
2022/01/19 02:54:04;;;;;;;53.08;33.67;;;;;;;-1.18;100.00;101875.09;4967230;28;20141;-62
2022/01/19 02:56:34;;;;;;;58.88;35.95;;;;;;;-1.36;100.00;101838.66;4966494;28;20910;-62
2022/01/19 02:59:12;;;;;;;58.88;34.97;;;;;;;-1.00;100.00;101873.75;4966852;28;20034;-62
2022/01/19 03:09:44;;;;;;;56.40;34.13;;;;;;;-0.49;100.00;101854.13;4967439;28;20061;-62
2022/01/19 03:12:09;;;;;;;59.40;35.88;;;;;;;-0.41;100.00;101831.91;4967448;28;20088;-62
2022/01/19 03:14:35;;;;;;;55.65;32.38;;;;;;;-0.12;100.00;101861.66;4966546;28;20044;-62
2022/01/19 03:17:01;;;;;;;56.53;33.85;;;;;;;-0.10;100.00;101859.97;4967769;28;20034;-62
2022/01/19 03:19:28;;;;;;;46.20;30.58;;;;;;;-0.15;100.00;101846.13;4967013;28;20025;-62
2022/01/19 03:21:54;;;;;;;52.83;30.35;;;;;;;-0.11;100.00;101853.09;4966325;28;20032;-62
2022/01/19 03:24:19;;;;;;;44.25;29.98;;;;;;;-0.15;100.00;101850.41;4966162;28;20966;-62
2022/01/19 03:26:45;;;;;;;45.05;27.13;;;;;;;-0.26;100.00;101832.16;4965487;28;20025;-62
2022/01/19 03:29:10;;;;;;;40.33;25.70;;;;;;;-0.20;100.00;101834.84;4965966;28;20137;-62
2022/01/19 03:31:36;;;;;;;47.85;25.77;;;;;;;-0.19;100.00;101839.16;4966834;28;20153;-62
2022/01/19 03:34:01;;;;;;;46.67;27.92;;;;;;;-0.24;100.00;101833.06;4967586;28;20022;-62
2022/01/19 03:36:27;;;;;;;39.45;25.83;;;;;;;-0.14;100.00;101837.53;4966370;28;20026;-62
2022/01/19 03:38:53;;;;;;;38.50;25.20;;;;;;;-0.06;100.00;101833.34;4964999;28;20038;-62
2022/01/19 03:41:18;;;;;;;39.50;26.20;;;;;;;0.06;100.00;101819.78;4966596;28;20131;-62
2022/01/19 03:43:43;;;;;;;40.13;25.83;;;;;;;0.23;100.00;101838.97;4965044;28;20135;-62
2022/01/19 03:46:14;;;;;;;41.67;25.42;;;;;;;0.20;100.00;101823.44;4966607;28;20040;-62
2022/01/19 03:48:51;;;;;;;43.45;24.80;;;;;;;0.32;100.00;101838.22;4966792;28;20029;-62
2022/01/19 03:51:17;;;;;;;36.17;24.83;;;;;;;0.35;100.00;101827.94;4967373;28;20026;-62
2022/01/19 03:53:42;;;;;;;39.95;23.73;;;;;;;0.02;100.00;101775.78;4966088;28;20348;-62
2022/01/19 03:56:08;;;;;;;34.58;24.17;;;;;;;0.31;100.00;101815.81;4966181;28;20061;-62
2022/01/19 03:58:33;;;;;;;43.30;23.80;;;;;;;0.30;100.00;101814.97;4966578;28;20045;-62
2022/01/19 04:00:59;;;;;;;34.63;23.13;;;;;;;0.22;100.00;101787.25;4968044;28;20536;-62
2022/01/19 04:06:20;;;;;;;34.05;22.42;;;;;;;0.44;100.00;101817.75;4970658;28;20096;-62
2022/01/19 04:08:46;;;;;;;40.85;24.08;;;;;;;0.45;100.00;101799.66;4969507;28;20040;-62
2022/01/19 04:11:13;;;;;;;32.88;22.88;;;;;;;0.55;100.00;101800.63;4969767;28;20133;-62
2022/01/19 04:13:57;;;;;;;35.03;24.25;;;;;;;0.64;100.00;101792.16;4969319;28;20080;-62
2022/01/19 04:16:23;;;;;;;45.25;23.10;;;;;;;0.74;100.00;101802.63;4969383;28;20030;-62
2022/01/19 04:18:51;;;;;;;33.00;22.27;;;;;;;0.81;100.00;101788.88;4969772;28;20111;-61
2022/01/19 04:21:16;;;;;;;33.15;23.90;;;;;;;0.92;100.00;101813.19;4969829;28;20033;-61
2022/01/19 04:23:42;;;;;;;35.60;24.05;;;;;;;0.76;100.00;101771.59;4969975;28;20042;-61
2022/01/19 04:26:07;;;;;;;34.17;24.42;;;;;;;0.88;100.00;101795.88;4969153;28;20483;-61
2022/01/19 04:28:34;;;;;;;38.35;24.67;;;;;;;0.73;100.00;101764.69;4969028;28;20065;-61
2022/01/19 04:30:59;;;;;;;33.22;24.38;;;;;;;0.99;100.00;101789.13;4968693;28;20051;-61
2022/01/19 04:33:27;;;;;;;39.15;24.20;;;;;;;1.09;100.00;101794.38;4969136;28;20036;-62
2022/01/19 04:35:55;;;;;;;41.30;26.27;;;;;;;1.11;100.00;101782.34;4969083;28;20026;-62
2022/01/19 04:44:07;;;;;;;39.38;25.58;;;;;;;1.24;100.00;101755.72;4969184;28;20088;-62
2022/01/19 05:02:48;;;;;;;33.33;24.85;;;;;;;1.50;100.00;101730.94;4970901;28;20363;-62
2022/01/19 05:05:25;;;;;;;33.80;24.92;;;;;;;1.76;100.00;101744.94;4968541;28;20037;-61
2022/01/19 05:15:31;;;;;;;31.17;22.20;;;;;;;1.81;100.00;101742.41;4968459;28;20068;-62
2022/01/19 05:17:57;;;;;;;29.00;21.73;;;;;;;1.85;100.00;101736.38;4970992;28;21054;-62
2022/01/19 05:20:22;;;;;;;32.25;21.85;;;;;;;1.85;100.00;101728.63;4971909;28;20875;-62
2022/01/19 05:22:47;;;;;;;34.33;23.63;;;;;;;1.85;100.00;101719.13;4970214;28;20034;-62
2022/01/19 05:25:13;;;;;;;33.20;21.23;;;;;;;1.89;100.00;101726.03;4969823;28;20025;-62
2022/01/19 05:27:38;;;;;;;29.98;23.67;;;;;;;1.75;100.00;101691.41;4970307;28;20021;-62
2022/01/19 05:30:04;;;;;;;34.00;23.38;;;;;;;1.55;100.00;101652.41;4968052;28;20061;-62
2022/01/19 05:32:29;;;;;;;35.40;22.35;;;;;;;1.91;100.00;101713.09;4968118;28;20891;-62
2022/01/19 05:34:55;;;;;;;33.10;22.15;;;;;;;1.94;100.00;101719.16;4969383;28;20834;-61
2022/01/19 05:37:20;;;;;;;32.50;22.38;;;;;;;1.91;100.00;101711.38;4968711;28;20032;-61
2022/01/19 05:39:46;;;;;;;33.20;19.85;;;;;;;1.93;100.00;101704.47;4970630;28;20034;-61
2022/01/19 05:42:15;;;;;;;28.90;21.65;;;;;;;1.95;100.00;101699.31;4971075;28;20904;-61
2022/01/19 05:44:43;;;;;;;28.67;20.05;;;;;;;1.83;100.00;101671.59;4971283;28;20149;-62
2022/01/19 05:47:12;;;;;;;32.30;21.55;;;;;;;1.47;100.00;101611.78;4969676;28;20227;-62
2022/01/19 05:49:38;;;;;;;33.22;20.80;;;;;;;2.06;100.00;101705.44;4969873;28;20141;-62
2022/01/19 05:52:05;;;;;;;26.67;19.77;;;;;;;1.85;100.00;101675.06;4968768;28;20076;-62
2022/01/19 05:54:30;;;;;;;24.85;18.48;;;;;;;2.08;100.00;101715.78;4967671;28;20954;-62
2022/01/19 05:56:57;;;;;;;24.80;18.75;;;;;;;2.03;100.00;101702.78;4969156;28;20050;-62
2022/01/19 05:59:22;;;;;;;28.85;19.20;;;;;;;2.11;100.00;101703.72;4968050;28;20022;-62
2022/01/19 06:01:48;;;;;;;25.80;18.85;;;;;;;2.09;100.00;101704.56;4951682;28;20045;-62
2022/01/19 06:04:13;;;;;;;30.50;19.05;;;;;;;2.19;100.00;101714.13;4968629;28;20033;-62
2022/01/19 06:06:39;;;;;;;23.45;18.08;;;;;;;2.20;100.00;101713.28;4966951;28;20054;-61
2022/01/19 06:09:10;;;;;;;24.02;17.60;;;;;;;2.16;100.00;101696.84;4966937;28;20083;-62
2022/01/19 06:11:37;;;;;;;24.20;17.52;;;;;;;2.26;100.00;101703.81;4967167;28;21076;-62
2022/01/19 06:14:03;;;;;;;22.30;16.35;;;;;;;1.40;100.00;101543.56;4966913;28;20034;-62
2022/01/19 06:16:28;;;;;;;25.50;16.40;;;;;;;2.29;100.00;101689.97;4966910;28;20185;-62
2022/01/19 06:18:54;;;;;;;21.88;14.70;;;;;;;2.17;100.00;101658.78;4966529;28;20029;-62
2022/01/19 06:21:19;;;;;;;27.90;18.00;;;;;;;2.30;100.00;101677.00;4967632;28;20026;-62
2022/01/19 06:23:44;;;;;;;20.80;16.67;;;;;;;2.19;100.00;101651.91;4966795;28;20045;-62
2022/01/19 06:26:10;;;;;;;19.65;15.52;;;;;;;2.30;100.00;101671.81;4968087;28;20096;-62
2022/01/19 06:28:35;;;;;;;21.15;15.90;;;;;;;2.25;100.00;101662.28;4966483;28;20871;-62
2022/01/19 06:31:00;;;;;;;22.88;15.07;;;;;;;2.29;100.00;101669.22;4966174;28;20895;-62
2022/01/19 06:33:26;;;;;;;22.67;16.27;;;;;;;2.30;100.00;101676.16;4967212;28;20950;-62
2022/01/19 06:35:53;;;;;;;19.67;15.35;;;;;;;2.25;100.00;101667.47;4966582;28;20061;-62
2022/01/19 06:38:18;;;;;;;22.27;15.45;;;;;;;2.23;100.00;101675.22;4966462;28;20029;-62
2022/01/19 06:40:44;;;;;;;19.52;15.32;;;;;;;2.18;100.00;101655.34;4965861;28;20890;-62
2022/01/19 06:43:09;;;;;;;22.42;15.48;;;;;;;2.27;100.00;101671.81;4966695;28;20034;-62
2022/01/19 06:45:34;;;;;;;20.30;15.40;;;;;;;2.24;100.00;101663.16;4967170;28;20955;-62
2022/01/19 06:48:00;;;;;;;19.20;14.25;;;;;;;2.13;100.00;101644.13;4964909;28;20026;-62
2022/01/19 06:50:26;;;;;;;23.10;14.93;;;;;;;2.26;100.00;101670.09;4964806;28;20238;-62
2022/01/19 06:52:52;;;;;;;22.40;14.98;;;;;;;2.28;100.00;101673.53;4967171;28;20040;-61
2022/01/19 06:55:18;;;;;;;18.80;14.70;;;;;;;2.14;100.00;101645.81;4967955;28;20917;-61
2022/01/19 06:57:46;;;;;;;19.02;14.88;;;;;;;2.27;100.00;101682.19;4968156;28;20026;-61
2022/01/19 07:00:13;;;;;;;21.10;15.80;;;;;;;1.72;100.00;101572.25;4966048;28;20146;-62
2022/01/19 07:02:39;;;;;;;20.98;15.75;;;;;;;2.25;100.00;101657.09;4966042;28;20034;-62
2022/01/19 07:05:04;;;;;;;21.58;15.48;;;;;;;2.28;100.00;101657.13;4965828;28;20045;-62
2022/01/19 07:07:30;;;;;;;20.77;14.93;;;;;;;2.26;100.00;101653.66;4965848;28;20893;-62
2022/01/19 07:09:56;;;;;;;25.25;15.73;;;;;;;1.77;100.00;101580.88;4966492;28;20428;-62
2022/01/19 07:12:22;;;;;;;21.80;14.32;;;;;;;2.28;100.00;101658.00;4966566;28;20033;-62
2022/01/19 07:14:47;;;;;;;22.20;14.65;;;;;;;2.28;100.00;101651.94;4966352;28;20050;-62
2022/01/19 07:17:13;;;;;;;20.10;15.13;;;;;;;2.29;100.00;101648.50;4966917;28;20030;-62
2022/01/19 07:19:38;;;;;;;21.67;15.65;;;;;;;2.25;100.00;101652.78;4965209;28;20900;-62
2022/01/19 07:22:03;;;;;;;20.02;15.45;;;;;;;2.23;100.00;101644.13;4965170;28;20061;-62
2022/01/19 07:24:29;;;;;;;24.58;15.60;;;;;;;2.24;100.00;101637.22;4964887;28;20057;-62
2022/01/19 07:26:54;;;;;;;20.88;15.00;;;;;;;2.26;100.00;101638.09;4965054;28;20032;-62
2022/01/19 07:29:20;;;;;;;20.83;15.05;;;;;;;2.25;100.00;101642.41;4964987;28;20037;-62
2022/01/19 07:31:45;;;;;;;24.27;14.25;;;;;;;2.08;100.00;101614.69;4965524;28;20022;-62
2022/01/19 07:34:11;;;;;;;21.10;15.32;;;;;;;1.88;100.00;101579.22;4965665;28;20112;-61
2022/01/19 07:36:36;;;;;;;23.77;15.30;;;;;;;2.22;100.00;101628.59;4969600;28;20045;-61
2022/01/19 07:39:02;;;;;;;27.08;15.63;;;;;;;2.00;100.00;101597.38;4968776;28;20133;-62
2022/01/19 07:41:28;;;;;;;22.80;15.35;;;;;;;2.20;100.00;101620.78;4969100;28;20084;-62
2022/01/19 07:43:53;;;;;;;24.55;16.13;;;;;;;2.19;100.00;101628.56;4968024;28;20784;-62
2022/01/19 07:46:19;;;;;;;22.33;16.38;;;;;;;2.19;100.00;101626.84;4968520;28;20072;-62
2022/01/19 07:48:44;;;;;;;23.00;16.25;;;;;;;2.20;100.00;101622.53;4968838;28;20064;-62
2022/01/19 07:51:10;;;;;;;19.65;15.05;;;;;;;2.26;100.00;101636.38;4968228;28;20025;-62
2022/01/19 07:53:36;;;;;;;21.27;15.45;;;;;;;2.28;100.00;101641.56;4967749;28;20036;-62
2022/01/19 07:56:03;;;;;;;21.20;15.65;;;;;;;2.25;100.00;101615.63;4964191;28;20871;-62
2022/01/19 07:58:28;;;;;;;20.20;15.23;;;;;;;2.26;100.00;101605.28;4966444;28;20037;-62
2022/01/19 08:00:54;;;;;;;22.25;16.13;;;;;;;2.36;100.00;101619.13;4967827;28;20052;-62
2022/01/19 08:03:19;;;;;;;20.08;15.05;;;;;;;2.04;100.00;101555.06;4966851;28;20060;-62
2022/01/19 08:05:44;;;;;;;27.67;16.80;;;;;;;2.36;100.00;101612.22;4969411;28;20045;-62
2022/01/19 08:08:10;;;;;;;21.58;16.85;;;;;;;2.37;100.00;101615.66;4970052;28;20832;-61
2022/01/19 08:10:35;;;;;;;21.77;14.82;;;;;;;2.43;100.00;101613.94;4970555;28;20026;-61
2022/01/19 08:13:03;;;;;;;19.90;15.40;;;;;;;2.42;100.00;101608.75;4969579;28;20914;-61
2022/01/19 08:15:29;;;;;;;20.80;15.38;;;;;;;2.48;100.00;101619.16;4969231;28;20033;-61
2022/01/19 08:17:55;;;;;;;20.80;15.20;;;;;;;2.50;100.00;101601.88;4970246;28;20235;-62
2022/01/19 08:20:20;;;;;;;23.52;15.77;;;;;;;2.50;100.00;101597.53;4969291;28;20082;-62
2022/01/19 08:22:46;;;;;;;22.33;15.27;;;;;;;2.19;100.00;101543.03;4972275;28;20026;-62
2022/01/19 08:25:12;;;;;;;22.13;16.80;;;;;;;2.57;100.00;101603.59;4971172;28;20895;-62
2022/01/19 08:27:37;;;;;;;23.70;16.90;;;;;;;2.61;100.00;101599.28;4969905;28;20928;-62
2022/01/19 08:30:08;;;;;;;27.80;16.70;;;;;;;2.60;100.00;101593.25;4971258;28;20037;-62
2022/01/19 08:32:35;;;;;;;25.50;16.27;;;;;;;2.65;100.00;101596.69;4971976;28;20128;-62
2022/01/19 08:35:02;;;;;;;27.85;15.88;;;;;;;2.68;100.00;101601.03;4968827;28;20025;-61
2022/01/19 08:37:27;;;;;;;25.38;18.15;;;;;;;2.72;100.00;101608.81;4970874;28;20129;-61
2022/01/19 08:39:53;;;;;;;23.00;16.42;;;;;;;2.68;100.00;101599.28;4969968;28;20030;-61
2022/01/19 08:42:18;;;;;;;20.08;16.20;;;;;;;2.71;100.00;101607.06;4968986;28;20022;-61
2022/01/19 08:44:43;;;;;;;23.50;16.50;;;;;;;2.70;100.00;101605.38;4968451;28;20084;-61
2022/01/19 08:47:09;;;;;;;21.67;16.08;;;;;;;2.70;100.00;101609.69;4967665;28;20026;-62
2022/01/19 08:49:34;;;;;;;19.80;15.40;;;;;;;2.63;100.00;101588.06;4968487;28;20091;-62
2022/01/19 08:52:01;;;;;;;22.65;16.23;;;;;;;2.57;100.00;101580.25;4968922;28;20938;-62
2022/01/19 08:54:27;;;;;;;31.27;22.55;;;;;;;2.64;100.00;101586.34;4969622;28;20061;-61
2022/01/19 08:56:53;;;;;;;30.00;20.77;;;;;;;2.59;100.00;101581.13;4969317;28;20824;-61
2022/01/19 08:59:18;;;;;;;25.75;18.40;;;;;;;2.65;100.00;101581.13;4970303;28;20096;-62
2022/01/19 09:01:44;;;;;;;19.05;15.13;;;;;;;2.72;100.00;101572.50;4969211;28;20952;-62
2022/01/19 09:04:09;;;;;;;23.02;16.88;;;;;;;2.42;100.00;101530.97;4969140;28;20034;-62
2022/01/19 09:06:34;;;;;;;26.35;18.48;;;;;;;2.76;100.00;101578.56;4967468;28;20030;-62
2022/01/19 09:09:00;;;;;;;29.02;22.00;;;;;;;2.67;100.00;101563.00;4968080;28;20037;-62
2022/01/19 09:11:25;;;;;;;32.92;23.73;;;;;;;2.79;100.00;101579.41;4968021;28;20180;-62
2022/01/19 09:13:51;;;;;;;33.63;27.17;;;;;;;2.81;100.00;101572.50;4967771;28;20084;-62
2022/01/19 09:16:17;;;;;;;24.80;19.95;;;;;;;2.82;100.00;101568.16;4967196;28;20053;-62
2022/01/19 09:18:42;;;;;;;27.45;18.58;;;;;;;2.88;100.00;101558.66;4966790;28;20200;-63
2022/01/19 09:21:08;;;;;;;21.95;16.08;;;;;;;2.54;100.00;101494.66;4967375;28;20084;-62
2022/01/19 09:23:35;;;;;;;22.88;15.82;;;;;;;2.98;100.00;101560.38;4966886;28;20092;-62
2022/01/19 09:26:01;;;;;;;24.90;18.33;;;;;;;3.02;100.00;101566.44;4962789;28;20124;-62
2022/01/19 09:28:27;;;;;;;26.55;18.25;;;;;;;2.77;100.00;101508.47;4966809;28;20041;-65
2022/01/19 09:30:52;;;;;;;27.50;18.27;;;;;;;3.06;100.00;101550.00;4966326;28;20849;-62
2022/01/19 09:33:23;;;;;;;26.02;17.65;;;;;;;3.17;100.00;101560.38;4966048;28;20812;-62
2022/01/19 09:38:28;;;;;;;24.98;15.63;;;;;;;3.17;100.00;101555.19;4967772;28;20044;-61
2022/01/19 09:40:55;;;;;;;22.67;16.95;;;;;;;3.14;100.00;101544.81;4966473;28;20087;-61
2022/01/19 09:43:23;;;;;;;22.85;15.85;;;;;;;2.87;100.00;101489.44;4967545;28;20910;-62
2022/01/19 09:45:52;;;;;;;31.70;16.73;;;;;;;3.25;100.00;101543.91;4967711;28;20967;-62
2022/01/19 09:48:18;;;;;;;28.27;16.83;;;;;;;3.28;100.00;101549.06;4966393;28;20052;-61
2022/01/19 09:50:44;;;;;;;19.85;16.02;;;;;;;3.21;100.00;101523.97;4965620;28;20864;-62
2022/01/19 09:53:09;;;;;;;21.38;16.00;;;;;;;3.33;100.00;101541.28;4966487;28;20044;-61
2022/01/19 09:55:38;;;;;;;21.27;15.00;;;;;;;3.37;100.00;101537.81;4966762;28;20034;-61
2022/01/19 09:58:04;;;;;;;20.17;15.48;;;;;;;3.27;100.00;101511.00;4966362;28;20235;-61
2022/01/19 10:00:29;;;;;;;20.25;15.40;;;;;;;2.83;100.00;101417.66;4966601;28;20861;-62
2022/01/19 10:03:14;;;;;;;22.63;15.68;;;;;;;3.47;100.00;101522.22;4966421;28;20065;-61
2022/01/19 10:06:12;;;;;;;20.80;15.75;;;;;;;3.50;100.00;101523.94;4966231;28;20045;-61
2022/01/19 10:08:45;;;;;;;20.90;15.68;;;;;;;3.50;100.00;101517.00;4967468;28;20816;-62
2022/01/19 10:11:12;;;;;;;24.88;15.25;;;;;;;3.51;100.00;101515.28;4968799;28;20040;-62
2022/01/19 10:19:22;;;;;;;22.70;16.25;;;;;;;3.55;100.00;101502.25;4966569;28;20096;-62
2022/01/19 10:22:04;;;;;;;19.33;14.63;;;;;;;3.60;100.00;101494.44;4966809;28;20046;-62
2022/01/19 10:24:47;;;;;;;24.70;15.88;;;;;;;3.27;100.00;101453.00;4969552;28;20227;-63
2022/01/19 10:27:37;;;;;;;25.45;16.55;;;;;;;3.57;100.00;101504.84;4966652;28;20120;-62
2022/01/19 10:30:02;;;;;;;24.70;16.08;;;;;;;3.59;100.00;101492.72;4967163;28;20105;-62
2022/01/19 10:32:32;;;;;;;22.92;15.82;;;;;;;3.58;100.00;101485.81;4965760;28;20364;-62
2022/01/19 10:35:31;;;;;;;23.92;16.02;;;;;;;3.57;100.00;101484.94;4966069;28;20026;-62
2022/01/19 10:38:15;;;;;;;19.20;13.10;;;;;;;3.55;100.00;101480.59;4964446;28;20041;-62
2022/01/19 10:40:44;;;;;;;17.80;13.95;;;;;;;3.51;100.00;101468.50;4966564;28;20891;-63
2022/01/19 10:43:29;;;;;;;22.45;15.45;;;;;;;3.57;100.00;101471.94;4965299;28;21066;-62
2022/01/19 10:45:55;;;;;;;24.67;15.07;;;;;;;3.58;100.00;101470.22;4966651;28;20028;-63
2022/01/19 10:48:32;;;;;;;20.85;15.65;;;;;;;3.39;100.00;101433.03;4966879;28;20037;-62
2022/01/19 10:51:20;;;;;;;26.17;14.70;;;;;;;3.56;100.00;101456.34;4966652;28;20036;-62
2022/01/19 10:53:47;;;;;;;17.80;14.25;;;;;;;3.04;100.00;101370.84;4966389;28;20041;-62
2022/01/19 10:56:27;;;;;;;19.63;13.95;;;;;;;3.55;100.00;101454.59;4965592;28;20053;-63
2022/01/19 10:58:57;;;;;;;24.13;14.55;;;;;;;3.53;100.00;101445.97;4965919;28;20033;-63
2022/01/19 11:01:45;;;;;;;26.80;14.40;;;;;;;3.62;100.00;101447.69;4966348;28;20033;-63
2022/01/19 11:04:27;;;;;;;26.48;15.00;;;;;;;3.59;100.00;101438.13;4967171;28;20029;-62
2022/01/19 11:07:01;;;;;;;20.63;14.43;;;;;;;3.69;100.00;101431.16;4966046;28;20034;-63
2022/01/19 11:09:28;;;;;;;23.63;16.15;;;;;;;3.73;100.00;101428.53;4968662;28;20052;-63
2022/01/19 11:11:57;;;;;;;19.35;13.82;;;;;;;3.71;100.00;101401.72;4970569;28;20034;-62
2022/01/19 11:14:25;;;;;;;21.10;14.52;;;;;;;3.51;100.00;101374.97;4972100;28;20821;-63
2022/01/19 11:16:51;;;;;;;21.42;14.30;;;;;;;3.84;100.00;101416.34;4971491;28;20038;-63
2022/01/19 11:19:18;;;;;;;24.25;13.13;;;;;;;3.87;100.00;101416.34;4970367;28;20064;-62
2022/01/19 11:22:05;;;;;;;21.65;15.43;;;;;;;3.87;100.00;101418.06;4970479;28;20235;-62
2022/01/19 11:24:45;;;;;;;21.77;14.88;;;;;;;3.88;100.00;101406.81;4971398;28;20060;-62
2022/01/19 11:27:11;;;;;;;18.33;13.75;;;;;;;3.63;100.00;101374.03;4970570;28;20038;-62
2022/01/19 11:29:38;;;;;;;33.75;19.45;;;;;;;3.80;100.00;101404.25;4970632;28;20017;-62
2022/01/19 11:32:33;;;;;;;44.22;29.38;;;;;;;3.85;100.00;101397.25;4970525;28;20030;-63
2022/01/19 11:34:58;;;;;;;28.30;16.52;;;;;;;3.88;100.00;101392.06;4951442;28;20041;-62
2022/01/19 11:37:41;;;;;;;19.52;14.00;;;;;;;3.61;100.00;101340.28;4970241;28;20029;-62
2022/01/19 11:40:35;;;;;;;21.08;14.82;;;;;;;3.93;100.00;101384.22;4970529;28;20034;-63
2022/01/19 11:43:20;;;;;;;19.00;12.77;;;;;;;3.75;100.00;101364.41;4971576;28;20032;-63
2022/01/19 11:45:46;;;;;;;19.73;13.65;;;;;;;3.90;100.00;101374.72;4971102;28;20276;-62
2022/01/19 11:48:20;;;;;;;21.58;15.48;;;;;;;3.96;100.00;101386.78;4971590;28;20884;-62
2022/01/19 11:50:47;;;;;;;20.17;15.38;;;;;;;3.96;100.00;101379.00;4972033;28;20030;-62
2022/01/19 11:53:14;;;;;;;21.67;15.25;;;;;;;3.92;100.00;101370.34;4972664;28;20026;-63
2022/01/19 11:55:41;;;;;;;25.25;15.63;;;;;;;3.93;100.00;101363.41;4972565;28;20037;-63
2022/01/19 11:58:23;;;;;;;22.90;15.43;;;;;;;3.93;100.00;101359.09;4975829;28;20040;-62
2022/01/19 12:00:51;;;;;;;22.58;14.77;;;;;;;3.90;100.00;101353.91;4978859;28;20025;-63
2022/01/19 12:03:26;;;;;;;24.02;15.32;;;;;;;3.87;100.00;101345.28;4981831;28;20030;-62
2022/01/19 12:05:53;;;;;;;19.70;15.05;;;;;;;3.83;100.00;101340.97;4987241;28;20025;-62
2022/01/19 12:08:36;;;;;;;23.58;16.33;;;;;;;3.89;100.00;101348.72;4984959;28;20036;-63
2022/01/19 12:11:22;;;;;;;18.23;15.00;;;;;;;3.89;100.00;101331.38;4985759;28;20026;-63
2022/01/19 12:14:15;;;;;;;25.80;17.27;;;;;;;3.89;100.00;101336.59;4989675;28;20775;-62
2022/01/19 12:16:58;;;;;;;26.58;16.48;;;;;;;3.85;100.00;101329.69;4990425;28;20100;-63
2022/01/19 12:19:27;;;;;;;22.42;17.15;;;;;;;3.65;100.00;101292.59;4988818;28;20863;-63
2022/01/19 12:22:11;;;;;;;23.30;16.80;;;;;;;3.73;100.00;101319.38;4990856;28;20406;-63
2022/01/19 12:24:37;;;;;;;27.95;15.98;;;;;;;3.75;100.00;101311.59;4990595;28;20037;-62
2022/01/19 12:27:05;;;;;;;22.20;14.88;;;;;;;3.70;100.00;101314.22;4991724;28;20092;-62
2022/01/19 12:29:33;;;;;;;26.17;17.50;;;;;;;3.69;100.00;101307.28;4990625;28;20096;-63
2022/01/19 12:32:08;;;;;;;25.25;16.10;;;;;;;3.60;100.00;101292.63;4991746;28;20141;-62
2022/01/19 12:35:07;;;;;;;24.52;18.02;;;;;;;3.67;100.00;101293.47;4990827;28;20041;-63
2022/01/19 12:37:32;;;;;;;25.27;16.48;;;;;;;3.65;100.00;101290.00;4991057;28;20093;-63
2022/01/19 12:40:00;;;;;;;27.75;17.15;;;;;;;3.66;100.00;101302.13;4990481;28;20038;-62
2022/01/19 12:42:41;;;;;;;25.60;16.67;;;;;;;3.65;100.00;101299.53;4986676;28;20030;-63